createdAt,value
2022-10-14T00:01:50.585Z,31.05
2022-10-14T00:03:54.615Z,43.08
2022-10-14T00:05:57.349Z,75.40
2022-10-14T00:08:00.023Z,55.35
2022-10-14T00:10:02.757Z,55.42
2022-10-14T00:12:06.837Z,56.65
2022-10-14T00:14:13.228Z,57.33
2022-10-14T00:16:18.053Z,67.82
2022-10-14T00:18:20.617Z,59.17
2022-10-14T00:20:23.168Z,52.40
2022-10-14T00:22:26.258Z,52.22
2022-10-14T00:24:28.870Z,54.60
2022-10-14T00:26:34.441Z,53.30
2022-10-14T00:28:38.397Z,47.90
2022-10-14T00:30:41.035Z,36.60
2022-10-14T00:32:43.673Z,35.30
2022-10-14T00:34:46.233Z,29.48
2022-10-14T00:36:49.111Z,28.40
2022-10-14T00:38:52.696Z,24.35
2022-10-14T00:40:56.897Z,29.83
2022-10-14T00:42:59.468Z,25.77
2022-10-14T00:45:12.849Z,27.40
2022-10-14T00:47:15.567Z,22.13
2022-10-14T00:49:21.623Z,19.33
2022-10-14T00:51:24.397Z,47.08
2022-10-14T00:53:26.993Z,50.38
2022-10-14T00:55:30.156Z,22.00
2022-10-14T00:57:33.072Z,23.73
2022-10-14T00:59:35.934Z,28.73
2022-10-14T01:01:40.247Z,31.98
2022-10-14T01:03:44.582Z,22.75
2022-10-14T01:06:00.788Z,19.55
2022-10-14T01:08:10.173Z,20.90
2022-10-14T01:10:20.777Z,33.85
2022-10-14T01:12:33.966Z,32.40
2022-10-14T01:14:45.485Z,30.75
2022-10-14T01:16:58.551Z,26.88
2022-10-14T01:19:15.519Z,19.33
2022-10-14T01:21:23.916Z,17.27
2022-10-14T01:24:05.074Z,17.38
2022-10-14T01:26:22.567Z,23.92
2022-10-14T01:28:30.476Z,20.95
2022-10-14T01:30:37.398Z,19.35
2022-10-14T01:32:51.465Z,18.80
2022-10-14T01:35:01.698Z,18.05
2022-10-14T01:37:09.975Z,22.63
2022-10-14T01:39:19.258Z,14.85
2022-10-14T01:41:27.305Z,17.67
2022-10-14T01:43:32.978Z,14.35
2022-10-14T01:45:41.820Z,17.45
2022-10-14T01:47:45.719Z,18.33
2022-10-14T01:49:54.164Z,16.55
2022-10-14T01:52:03.544Z,15.18
2022-10-14T01:54:12.170Z,17.35
2022-10-14T01:56:18.113Z,13.60
2022-10-14T01:58:22.452Z,15.27
2022-10-14T02:00:25.025Z,15.82
2022-10-14T02:02:29.024Z,14.90
2022-10-14T02:04:31.658Z,19.90
2022-10-14T02:06:38.478Z,15.43
2022-10-14T02:08:54.737Z,15.32
2022-10-14T02:11:10.636Z,17.95
2022-10-14T02:13:38.432Z,12.05
2022-10-14T02:15:50.550Z,16.42
2022-10-14T02:17:58.683Z,16.20
2022-10-14T02:20:05.874Z,15.60
2022-10-14T02:22:16.599Z,18.98
2022-10-14T02:24:23.890Z,15.02
2022-10-14T02:26:28.285Z,20.33
2022-10-14T02:28:32.734Z,16.73
2022-10-14T02:30:39.523Z,15.63
2022-10-14T02:32:43.853Z,14.77
2022-10-14T02:34:52.032Z,16.55
2022-10-14T02:36:56.513Z,11.15
2022-10-14T02:39:02.001Z,13.48
2022-10-14T02:41:08.772Z,18.80
2022-10-14T02:43:11.914Z,17.80
2022-10-14T02:45:16.720Z,16.35
2022-10-14T02:47:19.321Z,14.52
2022-10-14T02:49:22.088Z,14.82
2022-10-14T02:51:26.128Z,19.30
2022-10-14T02:53:28.749Z,15.50
2022-10-14T02:55:31.397Z,14.32
2022-10-14T02:57:34.047Z,19.58
2022-10-14T02:59:36.705Z,16.58
2022-10-14T03:01:39.324Z,16.65
2022-10-14T03:03:41.993Z,15.65
2022-10-14T03:05:44.634Z,13.68
2022-10-14T03:07:48.538Z,13.50
2022-10-14T03:09:51.154Z,17.70
2022-10-14T03:11:53.839Z,21.85
2022-10-14T03:13:56.445Z,18.08
2022-10-14T03:15:59.245Z,15.65
2022-10-14T03:18:01.814Z,13.80
2022-10-14T03:20:04.736Z,11.35
2022-10-14T03:22:07.299Z,14.30
2022-10-14T03:24:11.677Z,13.10
2022-10-14T03:26:14.354Z,19.92
2022-10-14T03:28:16.979Z,21.20
2022-10-14T03:30:19.596Z,11.63
2022-10-14T03:32:24.298Z,15.32
2022-10-14T03:34:26.980Z,10.52
2022-10-14T03:36:29.591Z,16.33
2022-10-14T03:38:32.127Z,32.38
2022-10-14T03:40:36.059Z,12.60
2022-10-14T03:42:38.697Z,14.65
2022-10-14T03:44:41.321Z,14.13
2022-10-14T03:46:43.927Z,14.90
2022-10-14T03:48:46.529Z,16.60
2022-10-14T03:50:49.825Z,14.02
2022-10-14T03:52:55.561Z,11.75
2022-10-14T03:54:58.514Z,10.95
2022-10-14T03:57:02.441Z,13.73
2022-10-14T03:59:05.088Z,13.27
2022-10-14T04:01:07.686Z,15.57
2022-10-14T04:03:11.504Z,16.50
2022-10-14T04:05:14.315Z,18.40
2022-10-14T04:07:16.928Z,12.90
2022-10-14T04:09:19.513Z,13.27
2022-10-14T04:11:22.136Z,13.98
2022-10-14T04:13:26.394Z,15.50
2022-10-14T04:15:29.025Z,17.25
2022-10-14T04:17:31.683Z,15.68
2022-10-14T04:19:34.349Z,13.82
2022-10-14T04:21:36.904Z,16.50
2022-10-14T04:23:39.749Z,16.15
2022-10-14T04:25:42.285Z,15.93
2022-10-14T04:27:44.955Z,14.18
2022-10-14T04:29:48.911Z,15.18
2022-10-14T04:31:51.547Z,18.52
2022-10-14T04:33:54.085Z,18.42
2022-10-14T04:36:00.327Z,19.05
2022-10-14T04:38:02.960Z,14.48
2022-10-14T04:40:06.541Z,16.27
2022-10-14T04:42:09.158Z,15.75
2022-10-14T04:44:12.012Z,13.43
2022-10-14T04:46:15.924Z,17.08
2022-10-14T04:48:21.110Z,15.35
2022-10-14T04:50:23.736Z,14.57
2022-10-14T04:52:26.546Z,13.25
2022-10-14T04:54:29.221Z,17.45
2022-10-14T04:56:31.883Z,13.57
2022-10-14T04:58:34.546Z,16.45
2022-10-14T05:00:37.131Z,17.15
2022-10-14T05:02:41.057Z,16.13
2022-10-14T05:04:43.601Z,13.73
2022-10-14T05:06:46.191Z,16.52
2022-10-14T05:08:48.988Z,20.75
2022-10-14T05:10:52.061Z,14.57
2022-10-14T05:12:56.753Z,23.20
2022-10-14T05:14:59.485Z,22.30
2022-10-14T05:17:02.101Z,14.45
2022-10-14T05:19:06.042Z,15.05
2022-10-14T05:21:08.716Z,15.23
2022-10-14T05:23:11.835Z,20.90
2022-10-14T05:25:14.539Z,18.45
2022-10-14T05:27:17.119Z,16.17
2022-10-14T05:29:19.658Z,16.55
2022-10-14T05:31:22.256Z,16.92
2022-10-14T05:33:25.212Z,15.57
2022-10-14T05:35:53.988Z,19.35
2022-10-14T05:37:57.030Z,16.70
2022-10-14T05:40:02.085Z,16.67
2022-10-14T05:42:04.935Z,19.13
2022-10-14T05:44:07.708Z,16.10
2022-10-14T05:46:10.298Z,15.43
2022-10-14T05:48:12.901Z,18.40
2022-10-14T05:50:16.121Z,15.88
2022-10-14T05:52:20.605Z,19.98
2022-10-14T05:54:23.444Z,18.10
2022-10-14T05:56:26.186Z,16.70
2022-10-14T05:58:28.770Z,15.77
2022-10-14T06:00:31.634Z,24.83
2022-10-14T06:02:36.605Z,22.85
2022-10-14T06:04:41.029Z,16.10
2022-10-14T06:06:43.688Z,17.80
2022-10-14T06:08:47.780Z,23.63
2022-10-14T06:10:50.436Z,21.02
2022-10-14T06:12:53.029Z,22.52
2022-10-14T06:14:57.486Z,18.17
2022-10-14T06:17:00.060Z,17.38
2022-10-14T06:19:02.660Z,22.48
2022-10-14T06:21:06.333Z,16.13
2022-10-14T06:23:08.937Z,21.58
2022-10-14T06:25:12.875Z,25.98
2022-10-14T06:27:15.479Z,26.45
2022-10-14T06:29:18.314Z,29.02
2022-10-14T06:31:20.888Z,27.98
2022-10-14T06:33:23.571Z,19.05
2022-10-14T06:35:26.200Z,18.95
2022-10-14T06:37:28.826Z,21.63
2022-10-14T06:39:31.447Z,15.85
2022-10-14T06:41:35.347Z,23.67
2022-10-14T06:43:38.062Z,16.13
2022-10-14T06:45:40.611Z,17.27
2022-10-14T06:47:43.285Z,15.90
2022-10-14T06:49:45.921Z,18.08
2022-10-14T06:51:48.484Z,16.50
2022-10-14T06:53:51.020Z,19.58
2022-10-14T06:55:58.602Z,21.83
2022-10-14T06:58:02.501Z,18.23
2022-10-14T07:00:06.655Z,19.15
2022-10-14T07:02:11.963Z,19.52
2022-10-14T07:04:14.574Z,24.10
2022-10-14T07:06:17.197Z,19.25
2022-10-14T07:08:19.795Z,19.65
2022-10-14T07:10:22.396Z,19.08
2022-10-14T07:12:25.252Z,20.15
2022-10-14T07:14:29.508Z,22.00
2022-10-14T07:16:33.144Z,36.30
2022-10-14T07:18:35.764Z,28.13
2022-10-14T07:20:38.387Z,22.80
2022-10-14T07:22:41.025Z,14.55
2022-10-14T07:24:43.670Z,15.70
2022-10-14T07:26:46.265Z,15.32
2022-10-14T07:28:48.896Z,16.63
2022-10-14T07:31:00.037Z,13.38
2022-10-14T07:33:03.135Z,14.77
2022-10-14T07:35:06.733Z,12.07
2022-10-14T07:37:09.345Z,12.38
2022-10-14T07:39:11.985Z,14.25
2022-10-14T07:41:18.164Z,12.48
2022-10-14T07:43:20.745Z,12.70
2022-10-14T07:45:23.373Z,11.80
2022-10-14T07:47:27.361Z,14.88
2022-10-14T07:49:30.208Z,18.17
2022-10-14T07:51:34.372Z,14.13
2022-10-14T07:53:38.127Z,8.80
2022-10-14T07:55:51.914Z,19.27
2022-10-14T07:57:54.593Z,16.90
2022-10-14T07:59:57.466Z,13.18
2022-10-14T08:02:00.113Z,18.35
2022-10-14T08:04:04.461Z,13.63
2022-10-14T08:06:07.553Z,18.80
2022-10-14T08:08:11.016Z,15.15
2022-10-14T08:10:13.739Z,9.30
2022-10-14T08:12:16.399Z,14.77
2022-10-14T08:14:18.996Z,12.68
2022-10-14T08:16:24.053Z,14.32
2022-10-14T08:18:27.038Z,13.00
2022-10-14T08:20:30.981Z,10.55
2022-10-14T08:22:33.623Z,14.20
2022-10-14T08:24:36.234Z,13.50
2022-10-14T08:26:41.274Z,10.85
2022-10-14T08:28:43.886Z,10.10
2022-10-14T08:30:48.105Z,13.15
2022-10-14T08:32:50.722Z,10.00
2022-10-14T08:34:55.621Z,15.23
2022-10-14T08:37:01.975Z,14.82
2022-10-14T08:39:05.748Z,12.93
2022-10-14T08:41:24.274Z,22.65
2022-10-14T08:43:32.019Z,10.52
2022-10-14T08:45:40.099Z,10.23
2022-10-14T08:47:46.616Z,12.48
2022-10-14T08:49:58.593Z,16.17
2022-10-14T08:52:06.771Z,15.20
2022-10-14T08:54:15.190Z,12.88
2022-10-14T08:56:19.230Z,12.63
2022-10-14T08:58:28.442Z,12.85
2022-10-14T09:00:33.153Z,14.77
2022-10-14T09:02:40.024Z,11.07
2022-10-14T09:04:42.721Z,12.25
2022-10-14T09:06:47.853Z,10.95
2022-10-14T09:08:55.730Z,13.27
2022-10-14T09:10:58.933Z,8.63
2022-10-14T09:13:18.156Z,14.90
2022-10-14T09:15:27.579Z,10.55
2022-10-14T09:17:37.843Z,11.73
2022-10-14T09:19:47.751Z,11.95
2022-10-14T09:21:53.264Z,12.02
2022-10-14T09:24:02.637Z,10.80
2022-10-14T09:26:12.370Z,12.15
2022-10-14T09:28:15.091Z,10.25
2022-10-14T09:30:19.598Z,15.50
2022-10-14T09:32:35.483Z,15.68
2022-10-14T09:34:42.368Z,12.32
2022-10-14T09:36:45.747Z,9.45
2022-10-14T09:38:52.484Z,9.77
2022-10-14T09:40:59.771Z,9.25
2022-10-14T09:43:07.803Z,13.40
2022-10-14T09:45:13.263Z,9.63
2022-10-14T09:47:19.097Z,12.57
2022-10-14T09:49:33.780Z,12.40
2022-10-14T09:51:36.918Z,11.68
2022-10-14T09:53:45.178Z,14.60
2022-10-14T09:55:49.666Z,9.65
2022-10-14T09:58:17.254Z,10.60
2022-10-14T10:00:28.532Z,11.10
2022-10-14T10:02:41.804Z,7.88
2022-10-14T10:04:47.290Z,11.68
2022-10-14T10:06:53.938Z,15.15
2022-10-14T10:08:58.481Z,12.10
2022-10-14T10:11:06.833Z,8.45
2022-10-14T10:13:23.379Z,11.57
2022-10-14T10:15:26.456Z,15.32
2022-10-14T10:17:32.665Z,10.07
2022-10-14T10:19:37.689Z,9.98
2022-10-14T10:21:40.250Z,15.40
2022-10-14T10:23:51.949Z,14.55
2022-10-14T10:25:54.526Z,14.32
2022-10-14T10:28:00.414Z,16.95
2022-10-14T10:30:21.670Z,19.95
2022-10-14T10:32:33.710Z,14.00
2022-10-14T10:35:03.010Z,13.65
2022-10-14T10:37:15.884Z,14.65
2022-10-14T10:39:27.524Z,11.10
2022-10-14T10:41:44.510Z,15.00
2022-10-14T10:44:08.203Z,14.82
2022-10-14T10:46:29.466Z,7.40
2022-10-14T10:48:39.945Z,17.83
2022-10-14T10:50:49.462Z,7.15
2022-10-14T10:53:07.112Z,9.52
2022-10-14T10:55:19.089Z,15.00
2022-10-14T10:57:34.707Z,8.68
2022-10-14T10:59:50.295Z,16.15
2022-10-14T11:02:06.195Z,7.20
2022-10-14T11:04:25.549Z,6.85
2022-10-14T11:06:52.385Z,5.65
2022-10-14T11:09:21.616Z,7.38
2022-10-14T11:11:42.068Z,4.50
2022-10-14T11:13:52.866Z,7.45
2022-10-14T11:16:01.455Z,5.15
2022-10-14T11:18:14.376Z,9.73
2022-10-14T11:20:27.678Z,8.90
2022-10-14T11:22:45.358Z,9.25
2022-10-14T11:24:58.688Z,16.95
2022-10-14T11:27:09.457Z,6.10
2022-10-14T11:29:29.561Z,5.18
2022-10-14T11:31:40.062Z,3.97
2022-10-14T11:33:58.123Z,9.05
2022-10-14T11:36:14.398Z,9.90
2022-10-14T11:38:32.716Z,14.50
2022-10-14T11:40:40.311Z,14.45
2022-10-14T11:42:54.454Z,13.50
2022-10-14T11:45:10.948Z,9.40
2022-10-14T11:47:19.146Z,7.90
2022-10-14T11:49:27.718Z,12.98
2022-10-14T11:51:36.112Z,5.47
2022-10-14T11:53:53.304Z,8.40
2022-10-14T11:56:03.860Z,9.07
2022-10-14T11:58:11.766Z,6.15
2022-10-14T12:00:51.584Z,5.07
2022-10-14T12:02:59.567Z,4.88
2022-10-14T12:05:12.565Z,5.97
2022-10-14T12:07:19.255Z,4.40
2022-10-14T12:09:28.975Z,8.18
2022-10-14T12:11:36.834Z,4.28
2022-10-14T12:13:44.447Z,5.25
2022-10-14T12:15:51.505Z,6.03
2022-10-14T12:17:58.503Z,4.57
2022-10-14T12:20:09.518Z,5.55
2022-10-14T12:22:18.862Z,9.65
2022-10-14T12:24:28.354Z,5.15
2022-10-14T12:26:46.617Z,1.52
2022-10-14T12:28:52.842Z,6.50
2022-10-14T12:31:36.487Z,1.88
2022-10-14T12:34:17.305Z,5.30
2022-10-14T12:36:33.350Z,2.67
2022-10-14T12:38:36.310Z,1.70
2022-10-14T12:40:40.562Z,2.78
2022-10-14T12:42:58.229Z,2.05
2022-10-14T12:45:02.750Z,2.35
2022-10-14T12:47:06.276Z,1.30
2022-10-14T12:49:18.568Z,3.75
2022-10-14T12:51:23.462Z,1.60
2022-10-14T12:53:29.833Z,2.97
2022-10-14T12:55:49.940Z,1.55
2022-10-14T12:57:55.605Z,5.57
2022-10-14T13:00:01.969Z,1.95
2022-10-14T13:02:20.356Z,3.22
2022-10-14T13:04:23.443Z,2.17
2022-10-14T13:06:36.349Z,2.60
2022-10-14T13:08:40.339Z,2.35
2022-10-14T13:10:48.292Z,5.57
2022-10-14T13:12:50.894Z,1.20
2022-10-14T13:14:59.250Z,4.10
2022-10-14T13:17:02.594Z,4.05
2022-10-14T13:19:06.194Z,4.38
2022-10-14T13:21:09.572Z,5.75
2022-10-14T13:23:31.082Z,7.90
2022-10-14T13:25:35.052Z,5.45
2022-10-14T13:27:43.634Z,4.80
2022-10-14T13:30:03.225Z,5.10
2022-10-14T13:32:17.117Z,10.43
2022-10-14T13:34:35.493Z,6.65
2022-10-14T13:36:43.880Z,7.43
2022-10-14T13:38:54.788Z,8.65
2022-10-14T13:40:59.602Z,8.40
2022-10-14T13:43:07.674Z,4.88
2022-10-14T13:45:14.217Z,6.68
2022-10-14T13:47:21.649Z,5.32
2022-10-14T13:49:34.402Z,6.47
2022-10-14T13:51:45.852Z,5.07
2022-10-14T13:53:52.912Z,7.22
2022-10-14T13:55:57.510Z,2.50
2022-10-14T13:58:13.481Z,5.78
2022-10-14T14:00:43.901Z,2.55
2022-10-14T14:02:50.391Z,3.50
2022-10-14T14:04:59.833Z,1.67
2022-10-14T14:07:18.686Z,3.03
2022-10-14T14:09:27.392Z,3.10
2022-10-14T14:11:34.040Z,3.85
2022-10-14T14:13:54.537Z,2.70
2022-10-14T14:16:00.164Z,2.75
2022-10-14T14:18:02.809Z,4.78
2022-10-14T14:20:11.171Z,2.55
2022-10-14T14:22:19.013Z,4.43
2022-10-14T14:24:25.108Z,4.05
2022-10-14T14:26:38.236Z,2.05
2022-10-14T14:28:42.330Z,3.80
2022-10-14T14:30:54.608Z,3.35
2022-10-14T14:33:00.556Z,5.95
2022-10-14T14:35:05.991Z,5.53
2022-10-14T14:39:31.842Z,3.00
2022-10-14T14:41:34.520Z,6.47
2022-10-14T14:43:41.198Z,3.03
2022-10-14T14:45:51.191Z,4.07
2022-10-14T14:47:57.279Z,3.00
2022-10-14T14:50:28.615Z,4.38
2022-10-14T14:52:24.549Z,4.05
2022-10-14T14:54:28.716Z,4.28
2022-10-14T14:56:35.683Z,5.60
2022-10-14T14:58:44.147Z,4.20
2022-10-14T15:00:47.215Z,3.55
2022-10-14T15:02:58.285Z,3.35
2022-10-14T15:05:02.780Z,3.30
2022-10-14T15:07:11.273Z,4.53
2022-10-14T15:09:15.851Z,3.92
2022-10-14T15:11:19.525Z,2.90
2022-10-14T15:13:32.100Z,2.90
2022-10-14T15:15:35.436Z,4.43
2022-10-14T15:17:39.690Z,6.20
2022-10-14T15:19:43.713Z,3.17
2022-10-14T15:21:47.742Z,4.35
2022-10-14T15:24:03.089Z,7.47
2022-10-14T15:26:06.809Z,4.63
2022-10-14T15:28:30.348Z,6.13
2022-10-14T15:30:55.781Z,2.85
2022-10-14T15:33:05.108Z,2.22
2022-10-14T15:35:14.092Z,2.85
2022-10-14T15:37:16.678Z,3.63
2022-10-14T15:39:19.535Z,4.70
2022-10-14T15:41:22.167Z,4.63
2022-10-14T15:43:26.036Z,8.27
2022-10-14T15:45:28.842Z,3.63
2022-10-14T15:47:30.680Z,8.32
2022-10-14T15:49:37.039Z,4.60
2022-10-14T15:51:43.519Z,4.75
2022-10-14T15:53:46.542Z,21.38
2022-10-14T15:55:53.824Z,7.50
2022-10-14T15:57:57.252Z,7.40
2022-10-14T15:59:59.801Z,4.93
2022-10-14T16:02:04.058Z,5.57
2022-10-14T16:04:15.454Z,9.07
2022-10-14T16:06:19.248Z,6.85
2022-10-14T16:08:23.282Z,6.50
2022-10-14T16:10:29.312Z,11.13
2022-10-14T16:12:36.098Z,10.23
2022-10-14T16:14:38.662Z,6.43
2022-10-14T16:16:43.595Z,11.23
2022-10-14T16:18:46.151Z,8.07
2022-10-14T16:20:49.140Z,11.48
2022-10-14T16:22:51.864Z,10.57
2022-10-14T16:24:56.073Z,22.45
2022-10-14T16:26:58.638Z,11.40
2022-10-14T16:29:03.284Z,16.95
2022-10-14T16:31:06.212Z,9.75
2022-10-14T16:33:08.859Z,5.60
2022-10-14T16:35:11.614Z,5.88
2022-10-14T16:37:14.238Z,6.00
2022-10-14T16:39:17.678Z,8.75
2022-10-14T16:41:21.620Z,5.88
2022-10-14T16:43:24.442Z,7.35
2022-10-14T16:45:27.315Z,11.27
2022-10-14T16:47:29.889Z,7.55
2022-10-14T16:49:32.447Z,6.57
2022-10-14T16:51:35.006Z,6.00
2022-10-14T16:53:44.980Z,4.55
2022-10-14T16:55:47.727Z,9.60
2022-10-14T16:57:51.670Z,7.70
2022-10-14T16:59:54.281Z,5.25
2022-10-14T17:01:56.893Z,11.48
2022-10-14T17:04:00.126Z,6.30
2022-10-14T17:06:02.652Z,13.15
2022-10-14T17:08:05.393Z,7.68
2022-10-14T17:10:08.896Z,12.32
2022-10-14T17:12:13.812Z,7.43
2022-10-14T17:14:21.772Z,9.82
2022-10-14T17:16:24.728Z,14.30
2022-10-14T17:18:30.993Z,10.18
2022-10-14T17:20:36.346Z,12.05
2022-10-14T17:22:39.189Z,10.23
2022-10-14T17:24:41.756Z,12.65
2022-10-14T17:26:45.370Z,10.85
2022-10-14T17:28:49.039Z,13.35
2022-10-14T17:30:53.408Z,11.07
2022-10-14T17:32:56.036Z,29.63
2022-10-14T17:34:58.585Z,10.10
2022-10-14T17:37:01.302Z,12.80
2022-10-14T17:39:04.672Z,11.77
2022-10-14T17:41:09.130Z,9.63
2022-10-14T17:43:11.672Z,11.38
2022-10-14T17:45:14.306Z,7.68
2022-10-14T17:47:19.143Z,8.23
2022-10-14T17:49:21.912Z,7.20
2022-10-14T17:51:26.041Z,6.43
2022-10-14T17:53:28.937Z,6.60
2022-10-14T17:55:31.498Z,6.70
2022-10-14T17:57:34.061Z,6.57
2022-10-14T17:59:36.633Z,6.22
2022-10-14T18:04:03.910Z,3.53
2022-10-14T18:06:10.823Z,5.45
2022-10-14T18:08:14.298Z,4.75
2022-10-14T18:10:17.005Z,3.25
2022-10-14T18:12:20.188Z,2.17
2022-10-14T18:14:22.752Z,3.85
2022-10-14T18:16:27.021Z,4.47
2022-10-14T18:18:30.821Z,3.83
2022-10-14T18:20:37.067Z,3.58
2022-10-14T18:22:40.596Z,5.85
2022-10-14T18:24:43.960Z,3.20
2022-10-14T18:26:46.557Z,5.53
2022-10-14T18:28:51.081Z,6.32
2022-10-14T18:30:53.713Z,2.92
2022-10-14T18:32:57.893Z,4.28
2022-10-14T18:35:00.463Z,6.43
2022-10-14T18:37:04.572Z,9.73
2022-10-14T18:39:09.557Z,5.47
2022-10-14T18:41:14.618Z,3.55
2022-10-14T18:43:17.187Z,5.70
2022-10-14T18:45:19.737Z,3.38
2022-10-14T18:47:22.499Z,4.70
2022-10-14T18:49:25.058Z,6.70
2022-10-14T18:51:29.463Z,3.70
2022-10-14T18:53:34.686Z,5.80
2022-10-14T18:55:41.671Z,6.40
2022-10-14T18:57:44.402Z,6.03
2022-10-14T18:59:47.245Z,10.43
2022-10-14T19:01:55.538Z,4.93
2022-10-14T19:03:58.449Z,8.35
2022-10-14T19:06:01.832Z,6.85
2022-10-14T19:08:05.229Z,4.53
2022-10-14T19:10:10.265Z,8.90
2022-10-14T19:12:26.761Z,5.45
2022-10-14T19:14:31.711Z,5.65
2022-10-14T19:16:38.721Z,5.82
2022-10-14T19:18:41.781Z,6.78
2022-10-14T19:20:45.437Z,8.48
2022-10-14T19:22:48.113Z,4.85
2022-10-14T19:24:51.919Z,4.80
2022-10-14T19:26:56.976Z,6.32
2022-10-14T19:29:00.538Z,4.22
2022-10-14T19:31:06.248Z,7.10
2022-10-14T19:33:08.887Z,4.10
2022-10-14T19:35:11.590Z,7.53
2022-10-14T19:37:14.224Z,11.15
2022-10-14T19:39:19.071Z,6.07
2022-10-14T19:41:22.411Z,7.38
2022-10-14T19:43:26.419Z,6.35
2022-10-14T19:45:28.983Z,7.95
2022-10-14T19:47:31.557Z,6.07
2022-10-14T19:49:34.578Z,8.30
2022-10-14T19:51:37.244Z,7.40
2022-10-14T19:53:40.165Z,6.47
2022-10-14T19:55:43.197Z,7.32
2022-10-14T19:57:46.485Z,3.92
2022-10-14T19:59:50.950Z,4.85
2022-10-14T20:01:53.851Z,6.38
2022-10-14T20:03:57.974Z,5.40
2022-10-14T20:06:01.209Z,5.22
2022-10-14T20:08:04.111Z,5.93
2022-10-14T20:10:07.824Z,7.13
2022-10-14T20:12:10.836Z,4.55
2022-10-14T20:14:14.514Z,6.88
2022-10-14T20:16:21.172Z,7.13
2022-10-14T20:18:26.101Z,9.23
2022-10-14T20:20:29.580Z,9.55
2022-10-14T20:22:33.302Z,6.80
2022-10-14T20:24:39.894Z,4.80
2022-10-14T20:26:46.858Z,5.35
2022-10-14T20:28:50.447Z,4.63
2022-10-14T20:30:54.191Z,3.05
2022-10-14T20:32:58.104Z,7.50
2022-10-14T20:35:00.741Z,5.35
2022-10-14T20:37:03.960Z,5.25
2022-10-14T20:39:06.580Z,3.83
2022-10-14T20:41:12.968Z,7.53
2022-10-14T20:43:15.531Z,5.25
2022-10-14T20:45:18.188Z,5.85
2022-10-14T20:47:21.174Z,4.57
2022-10-14T20:49:25.394Z,6.47
2022-10-14T20:51:28.139Z,4.45
2022-10-14T20:53:31.077Z,5.47
2022-10-14T20:55:33.819Z,3.25
2022-10-14T20:57:36.674Z,5.97
2022-10-14T20:59:41.560Z,4.97
2022-10-14T21:01:44.200Z,2.45
2022-10-14T21:03:47.728Z,4.10
2022-10-14T21:05:52.109Z,2.33
2022-10-14T21:07:54.731Z,4.13
2022-10-14T21:09:57.353Z,6.20
2022-10-14T21:11:59.952Z,3.45
2022-10-14T21:14:02.535Z,4.03
2022-10-14T21:16:14.573Z,2.17
2022-10-14T21:18:17.220Z,3.00
2022-10-14T21:20:19.830Z,1.77
2022-10-14T21:22:24.088Z,3.72
2022-10-14T21:24:26.904Z,1.85
2022-10-14T21:26:30.846Z,6.80
2022-10-14T21:28:33.482Z,5.55
2022-10-14T21:30:36.232Z,2.63
2022-10-14T21:32:38.864Z,4.20
2022-10-14T21:34:41.452Z,7.03
2022-10-14T21:36:44.761Z,6.40
2022-10-14T21:38:48.770Z,5.22
2022-10-14T21:40:51.386Z,2.30
2022-10-14T21:42:53.972Z,10.95
2022-10-14T21:44:56.532Z,6.22
2022-10-14T21:46:59.100Z,2.92
2022-10-14T21:49:01.677Z,6.00
2022-10-14T21:51:05.452Z,5.60
2022-10-14T21:53:11.325Z,6.20
2022-10-14T21:55:17.988Z,2.50
2022-10-14T21:57:20.784Z,2.97
2022-10-14T21:59:23.555Z,2.03
2022-10-14T22:01:27.950Z,5.97
2022-10-14T22:03:30.986Z,2.40
2022-10-14T22:05:35.383Z,6.75
2022-10-14T22:07:37.966Z,3.70
2022-10-14T22:09:40.543Z,2.90
2022-10-14T22:11:44.695Z,1.88
2022-10-14T22:13:47.589Z,2.60
2022-10-14T22:15:50.364Z,2.42
2022-10-14T22:17:53.543Z,3.33
2022-10-14T22:19:56.183Z,4.82
2022-10-14T22:22:01.240Z,4.95
2022-10-14T22:24:04.538Z,3.40
2022-10-14T22:26:09.548Z,2.97
2022-10-14T22:28:13.470Z,5.15
2022-10-14T22:30:16.395Z,6.20
2022-10-14T22:32:18.986Z,5.90
2022-10-14T22:34:21.563Z,4.53
2022-10-14T22:36:27.888Z,8.73
2022-10-14T22:38:30.467Z,4.38
2022-10-14T22:40:34.581Z,3.35
2022-10-14T22:42:39.188Z,4.50
2022-10-14T22:44:46.397Z,2.65
2022-10-14T22:46:49.012Z,5.88
2022-10-14T22:48:55.980Z,2.45
2022-10-14T22:51:03.098Z,3.58
2022-10-14T22:53:05.711Z,7.68
2022-10-14T22:55:10.000Z,4.57
2022-10-14T22:57:12.613Z,3.03
2022-10-14T22:59:15.370Z,4.38
2022-10-14T23:01:21.219Z,2.22
2022-10-14T23:03:23.823Z,2.55
2022-10-14T23:05:26.399Z,4.13
2022-10-14T23:07:29.718Z,4.35
2022-10-14T23:09:32.401Z,1.58
2022-10-14T23:11:35.066Z,4.55
2022-10-14T23:13:37.646Z,1.80
2022-10-14T23:15:40.241Z,4.00
2022-10-14T23:17:44.165Z,1.55
2022-10-14T23:19:47.839Z,2.05
2022-10-14T23:21:50.407Z,2.20
2022-10-14T23:23:54.423Z,2.08
2022-10-14T23:25:57.038Z,3.53
2022-10-14T23:27:59.622Z,2.33
2022-10-14T23:30:02.213Z,3.83
2022-10-14T23:32:05.062Z,2.58
2022-10-14T23:34:12.229Z,2.55
2022-10-14T23:36:15.805Z,4.53
2022-10-14T23:38:18.470Z,3.85
2022-10-14T23:40:21.077Z,2.65
2022-10-14T23:42:23.782Z,4.97
2022-10-14T23:44:26.401Z,2.65
2022-10-14T23:46:28.968Z,4.45
2022-10-14T23:48:31.541Z,1.70
2022-10-14T23:50:35.497Z,7.45
2022-10-14T23:52:38.077Z,6.43
2022-10-14T23:54:40.773Z,3.85
2022-10-14T23:56:43.359Z,3.80
2022-10-14T23:58:45.941Z,2.15
